Time;durP1;ratioP1;P1;durP2;ratioP2;P2;SDS_P1;SDS_P2;PMS_P1;PMS_P2;Temp;Humidity;BMP_temperature;BMP_pressure;BME280_temperature;BME280_humidity;BME280_pressure;Samples;Min_cycle;Max_cycle;Signal;HPM_P1;HPM_P2
2020/12/17 00:01:08;;;;;;;4.15;3.53;;;12.00;73.20;;;;;;4965350;28;20409;-77
2020/12/17 00:03:34;;;;;;;6.05;3.63;;;12.10;73.30;;;;;;4982401;28;20027;-78
2020/12/17 00:06:00;;;;;;;3.63;3.10;;;12.00;73.20;;;;;;4970786;28;20031;-77
2020/12/17 00:08:25;;;;;;;4.07;2.85;;;12.00;73.30;;;;;;4981329;28;20043;-77
2020/12/17 00:10:51;;;;;;;4.18;3.30;;;12.10;73.30;;;;;;4976162;28;20121;-77
2020/12/17 00:13:16;;;;;;;5.60;3.70;;;12.00;73.30;;;;;;4974487;28;20035;-76
2020/12/17 00:15:42;;;;;;;4.45;2.88;;;12.10;73.30;;;;;;4983381;28;20493;-77
2020/12/17 00:18:07;;;;;;;4.20;3.80;;;12.10;73.30;;;;;;4981867;28;20038;-78
2020/12/17 00:20:33;;;;;;;3.80;3.30;;;12.10;73.20;;;;;;4975532;28;20069;-77
2020/12/17 00:22:58;;;;;;;4.70;3.92;;;12.00;73.10;;;;;;4980939;28;20030;-77
2020/12/17 00:25:24;;;;;;;4.00;3.15;;;12.10;73.20;;;;;;4984161;28;20061;-77
2020/12/17 00:27:50;;;;;;;11.10;4.13;;;12.20;73.20;;;;;;4981740;28;20073;-77
2020/12/17 00:30:16;;;;;;;3.50;3.13;;;12.00;73.10;;;;;;4979761;28;20323;-77
2020/12/17 00:32:43;;;;;;;4.00;3.60;;;12.00;73.10;;;;;;4968785;28;20040;-77
2020/12/17 00:35:10;;;;;;;5.82;4.47;;;12.20;73.30;;;;;;4980713;28;20054;-77
2020/12/17 00:37:37;;;;;;;4.43;3.75;;;12.10;73.20;;;;;;4985311;28;20102;-77
2020/12/17 00:40:11;;;;;;;4.43;3.95;;;12.10;73.20;;;;;;4985250;28;20474;-78
2020/12/17 00:42:40;;;;;;;4.28;3.45;;;12.00;73.20;;;;;;4980851;28;20449;-77
2020/12/17 00:45:06;;;;;;;4.38;3.22;;;12.10;73.30;;;;;;4986022;28;20105;-77
2020/12/17 00:47:32;;;;;;;4.88;3.92;;;12.10;73.30;;;;;;4986337;28;20041;-77
2020/12/17 00:49:58;;;;;;;3.80;3.38;;;12.10;73.30;;;;;;4981337;28;20366;-78
2020/12/17 00:52:24;;;;;;;4.40;3.72;;;12.10;73.30;;;;;;4983970;28;20037;-77
2020/12/17 00:54:49;;;;;;;3.97;3.17;;;12.10;73.20;;;;;;4985040;28;20409;-77
2020/12/17 00:57:16;;;;;;;4.10;3.38;;;12.10;73.20;;;;;;4984530;28;20026;-77
2020/12/17 00:59:42;;;;;;;3.40;2.92;;;12.10;73.20;;;;;;4976245;28;20030;-78
2020/12/17 01:02:07;;;;;;;3.78;3.28;;;12.10;73.30;;;;;;4985460;28;20029;-76
2020/12/17 01:04:33;;;;;;;4.07;3.67;;;12.10;73.30;;;;;;4979130;28;20031;-77
2020/12/17 01:06:58;;;;;;;4.13;3.55;;;12.10;73.20;;;;;;4987641;28;20440;-77
2020/12/17 01:09:24;;;;;;;4.65;4.15;;;12.10;73.20;;;;;;4985014;28;20097;-77
2020/12/17 01:11:49;;;;;;;3.78;3.22;;;12.20;73.30;;;;;;4985063;28;20030;-77
2020/12/17 01:14:15;;;;;;;4.22;3.42;;;12.20;73.20;;;;;;4978215;28;20038;-77
2020/12/17 01:16:40;;;;;;;4.50;3.85;;;12.20;73.20;;;;;;4983651;28;20035;-77
2020/12/17 01:19:06;;;;;;;4.18;3.65;;;12.20;73.20;;;;;;4985167;28;20038;-77
2020/12/17 01:21:31;;;;;;;4.20;3.50;;;12.20;73.10;;;;;;4985621;28;20117;-77
2020/12/17 01:23:57;;;;;;;4.15;3.53;;;12.10;73.00;;;;;;4984986;28;20045;-76
2020/12/17 01:26:23;;;;;;;4.45;3.78;;;12.10;73.00;;;;;;4984831;28;20028;-77
2020/12/17 01:28:48;;;;;;;4.03;3.63;;;12.10;73.00;;;;;;4984164;28;20524;-78
2020/12/17 01:31:15;;;;;;;3.65;3.22;;;12.10;73.00;;;;;;4984129;28;20034;-78
2020/12/17 01:33:41;;;;;;;3.58;3.28;;;12.10;73.00;;;;;;4984436;28;20035;-77
2020/12/17 01:36:09;;;;;;;4.10;3.70;;;12.20;73.10;;;;;;4980615;28;20034;-77
2020/12/17 01:38:36;;;;;;;4.35;3.63;;;12.10;73.00;;;;;;4987142;28;20113;-77
2020/12/17 01:41:02;;;;;;;4.45;3.25;;;12.10;73.00;;;;;;4984676;28;20034;-78
2020/12/17 01:43:34;;;;;;;4.05;3.65;;;12.30;73.20;;;;;;4982397;28;20046;-77
2020/12/17 01:45:59;;;;;;;4.32;3.63;;;12.10;73.00;;;;;;4976741;28;20049;-77
2020/12/17 01:48:27;;;;;;;4.60;3.75;;;12.10;73.10;;;;;;4978962;28;20402;-77
2020/12/17 01:50:52;;;;;;;3.65;3.20;;;12.10;73.10;;;;;;4980696;28;20027;-77
2020/12/17 01:53:18;;;;;;;4.38;3.63;;;12.10;73.10;;;;;;4983104;28;20122;-77
2020/12/17 01:55:43;;;;;;;4.78;4.05;;;12.10;73.10;;;;;;4984266;28;20498;-78
2020/12/17 01:58:13;;;;;;;4.03;3.53;;;12.10;73.10;;;;;;4985799;28;20030;-77
2020/12/17 02:00:38;;;;;;;5.03;4.20;;;12.10;73.00;;;;;;4977299;28;20509;-78
2020/12/17 02:03:05;;;;;;;4.40;3.58;;;12.10;73.00;;;;;;4984282;28;20034;-78
2020/12/17 02:05:31;;;;;;;4.43;3.60;;;12.20;73.00;;;;;;4977630;28;20033;-78
2020/12/17 02:07:58;;;;;;;4.97;4.20;;;12.10;72.90;;;;;;4978298;28;20042;-77
2020/12/17 02:10:25;;;;;;;4.50;3.65;;;12.10;72.90;;;;;;4983351;28;20505;-77
2020/12/17 02:12:51;;;;;;;4.30;3.50;;;12.00;72.90;;;;;;4979875;28;20050;-77
2020/12/17 02:15:18;;;;;;;5.22;4.28;;;12.20;73.00;;;;;;4984771;28;20490;-77
2020/12/17 02:17:44;;;;;;;4.60;4.20;;;12.00;72.90;;;;;;4985978;28;20042;-77
2020/12/17 02:20:10;;;;;;;4.43;3.88;;;12.00;72.90;;;;;;4978241;28;20498;-77
2020/12/17 02:22:36;;;;;;;4.97;3.72;;;12.00;72.90;;;;;;4984339;28;20088;-77
2020/12/17 02:25:06;;;;;;;4.75;3.70;;;12.00;72.90;;;;;;4983158;28;20034;-76
2020/12/17 02:27:31;;;;;;;4.22;3.63;;;12.00;72.90;;;;;;4982479;28;20042;-77
2020/12/17 02:29:57;;;;;;;3.70;3.15;;;12.20;73.00;;;;;;4979394;28;20026;-78
2020/12/17 02:32:22;;;;;;;5.05;4.18;;;12.00;72.90;;;;;;4982995;28;20073;-77
2020/12/17 02:34:48;;;;;;;3.90;3.47;;;12.10;73.00;;;;;;4978323;28;20034;-77
2020/12/17 02:37:14;;;;;;;5.55;4.25;;;11.90;72.90;;;;;;4983968;28;20030;-77
2020/12/17 02:39:39;;;;;;;4.28;3.83;;;12.00;72.90;;;;;;4984382;28;20462;-77
2020/12/17 02:42:05;;;;;;;4.60;3.78;;;12.00;72.80;;;;;;4983653;28;20054;-77
2020/12/17 02:44:31;;;;;;;4.65;3.90;;;12.00;72.80;;;;;;4977342;28;20077;-77
2020/12/17 02:46:56;;;;;;;3.88;3.45;;;12.00;72.80;;;;;;4975499;28;20031;-76
2020/12/17 02:49:22;;;;;;;3.78;3.22;;;12.00;72.80;;;;;;4983300;28;20042;-77
2020/12/17 02:51:54;;;;;;;5.82;5.20;;;11.90;72.80;;;;;;4986406;28;20035;-77
2020/12/17 02:54:19;;;;;;;4.75;4.00;;;11.90;72.80;;;;;;4982993;28;20031;-77
2020/12/17 02:56:45;;;;;;;4.93;4.15;;;11.90;72.70;;;;;;4980642;28;20081;-76
2020/12/17 02:59:10;;;;;;;4.82;3.85;;;11.90;72.70;;;;;;4978852;28;20041;-76
2020/12/17 03:01:35;;;;;;;3.95;3.50;;;11.90;72.70;;;;;;4983393;28;20497;-77
2020/12/17 03:04:01;;;;;;;5.05;3.65;;;11.80;72.70;;;;;;4981917;28;20030;-76
2020/12/17 03:06:27;;;;;;;4.80;3.70;;;11.90;72.80;;;;;;4984176;28;20061;-76
2020/12/17 03:08:52;;;;;;;5.68;3.63;;;11.80;72.80;;;;;;4984562;28;20398;-77
2020/12/17 03:11:18;;;;;;;4.15;3.50;;;11.80;72.80;;;;;;4983307;28;20121;-76
2020/12/17 03:13:43;;;;;;;5.05;3.65;;;11.70;72.80;;;;;;4980259;28;20398;-76
2020/12/17 03:16:09;;;;;;;4.47;3.70;;;11.70;72.90;;;;;;4982930;28;20105;-76
2020/12/17 03:18:34;;;;;;;3.50;3.17;;;11.80;73.00;;;;;;4983043;28;20037;-77
2020/12/17 03:21:00;;;;;;;3.97;3.25;;;11.70;73.50;;;;;;4977677;28;20026;-77
2020/12/17 03:23:25;;;;;;;4.45;3.60;;;11.70;73.00;;;;;;4986197;28;20448;-77
2020/12/17 03:25:51;;;;;;;5.45;4.15;;;11.70;73.10;;;;;;4982990;28;20038;-77
2020/12/17 03:28:16;;;;;;;5.78;4.57;;;11.70;73.10;;;;;;4977238;28;20059;-77
2020/12/17 03:30:42;;;;;;;5.53;4.18;;;11.80;73.20;;;;;;4984385;28;20058;-77
2020/12/17 03:33:07;;;;;;;5.18;4.32;;;11.70;73.20;;;;;;4982660;28;20045;-77
2020/12/17 03:35:33;;;;;;;5.07;4.40;;;11.80;73.30;;;;;;4975493;28;20405;-78
2020/12/17 03:37:58;;;;;;;4.93;3.70;;;11.70;73.20;;;;;;4984083;28;20037;-77
2020/12/17 03:40:26;;;;;;;4.75;3.65;;;11.70;73.30;;;;;;4976360;28;20453;-77
2020/12/17 03:42:52;;;;;;;4.57;3.78;;;11.70;73.30;;;;;;4981777;28;20034;-76
2020/12/17 03:45:18;;;;;;;4.80;4.07;;;11.80;73.40;;;;;;4984623;28;20034;-77
2020/12/17 03:47:43;;;;;;;5.15;4.32;;;11.80;73.30;;;;;;4981130;28;20045;-77
2020/12/17 03:50:09;;;;;;;4.97;3.92;;;11.90;73.40;;;;;;4975938;28;20039;-77
2020/12/17 03:52:34;;;;;;;4.72;3.88;;;11.80;73.40;;;;;;4982993;28;20136;-76
2020/12/17 03:55:00;;;;;;;4.57;3.90;;;11.80;73.40;;;;;;4984222;28;20053;-77
2020/12/17 03:57:25;;;;;;;4.20;3.78;;;11.90;73.40;;;;;;4983137;28;20027;-77
2020/12/17 03:59:51;;;;;;;4.68;4.22;;;11.80;73.40;;;;;;4982456;28;20054;-77
2020/12/17 04:02:16;;;;;;;4.78;3.97;;;11.90;73.40;;;;;;4981863;28;20030;-78
2020/12/17 04:04:42;;;;;;;5.35;4.55;;;11.90;73.40;;;;;;4977361;28;20058;-77
2020/12/17 04:07:07;;;;;;;4.90;4.30;;;11.90;73.40;;;;;;4986167;28;20063;-78
2020/12/17 04:09:33;;;;;;;4.63;4.07;;;11.90;73.40;;;;;;4987324;28;20038;-78
2020/12/17 04:11:58;;;;;;;4.53;3.80;;;11.90;73.40;;;;;;4985535;28;20026;-78
2020/12/17 04:14:23;;;;;;;4.22;3.60;;;11.90;73.40;;;;;;4983252;28;20448;-78
2020/12/17 04:16:49;;;;;;;4.38;3.50;;;11.90;73.30;;;;;;4986245;28;20046;-77
2020/12/17 04:19:15;;;;;;;5.28;4.45;;;12.00;73.40;;;;;;4981327;28;20027;-77
2020/12/17 04:21:40;;;;;;;5.20;4.20;;;11.90;73.30;;;;;;4985453;28;20037;-77
2020/12/17 04:24:05;;;;;;;5.95;4.53;;;11.90;73.20;;;;;;4992079;28;20126;-77
2020/12/17 04:26:31;;;;;;;5.10;4.30;;;12.00;73.20;;;;;;4985603;28;20093;-77
2020/12/17 04:29:01;;;;;;;6.43;4.75;;;11.90;73.20;;;;;;4980083;28;20413;-77
2020/12/17 04:31:27;;;;;;;4.90;4.32;;;11.90;73.20;;;;;;4985931;28;20026;-77
2020/12/17 04:33:53;;;;;;;4.93;4.30;;;11.90;73.30;;;;;;4983858;28;20030;-77
2020/12/17 04:36:19;;;;;;;5.15;4.18;;;12.00;73.30;;;;;;4983136;28;20045;-78
2020/12/17 04:38:44;;;;;;;5.93;4.57;;;12.00;73.30;;;;;;4985695;28;20509;-78
2020/12/17 04:41:10;;;;;;;5.55;4.10;;;11.90;73.30;;;;;;4986374;28;20038;-77
2020/12/17 04:43:35;;;;;;;3.95;3.53;;;12.00;73.30;;;;;;4982947;28;20509;-77
2020/12/17 04:46:04;;;;;;;6.25;4.72;;;12.00;73.30;;;;;;4985757;28;20129;-77
2020/12/17 04:48:31;;;;;;;4.97;3.97;;;12.00;73.30;;;;;;4984672;28;20039;-77
2020/12/17 04:50:57;;;;;;;4.60;3.75;;;11.90;73.20;;;;;;4979257;28;20117;-77
2020/12/17 04:53:24;;;;;;;5.78;4.40;;;12.00;73.20;;;;;;4966844;28;20105;-77
2020/12/17 04:55:51;;;;;;;4.93;4.28;;;12.00;73.20;;;;;;4986254;28;20034;-77
2020/12/17 04:58:20;;;;;;;5.28;4.20;;;11.90;73.10;;;;;;4982172;28;20057;-77
2020/12/17 05:00:51;;;;;;;4.63;3.97;;;12.00;73.20;;;;;;4983361;28;20053;-78
2020/12/17 05:03:17;;;;;;;;;;;11.90;73.20;;;;;;4988493;28;20038;-79
2020/12/17 05:05:42;;;;;;;4.78;3.97;;;12.00;73.20;;;;;;4979230;28;19913;-77
2020/12/17 05:08:09;;;;;;;4.85;3.92;;;11.90;72.90;;;;;;4984802;28;20088;-78
2020/12/17 05:10:35;;;;;;;5.07;4.07;;;11.90;73.00;;;;;;4986636;28;20038;-78
2020/12/17 05:13:00;;;;;;;5.95;4.15;;;11.90;73.10;;;;;;4973223;28;20041;-78
2020/12/17 05:15:26;;;;;;;5.25;4.18;;;11.90;73.10;;;;;;4986740;28;20125;-79
2020/12/17 05:17:55;;;;;;;4.68;3.90;;;11.90;73.20;;;;;;4983863;28;20034;-78
2020/12/17 05:20:20;;;;;;;7.10;5.13;;;11.90;73.20;;;;;;4979278;28;20038;-78
2020/12/17 05:22:46;;;;;;;5.25;4.15;;;11.80;73.30;;;;;;4989492;28;20054;-77
2020/12/17 05:25:14;;;;;;;6.20;4.78;;;11.90;73.30;;;;;;4984937;28;20030;-78
2020/12/17 05:27:41;;;;;;;5.35;4.20;;;12.00;73.50;;;;;;4983901;28;20595;-76
2020/12/17 05:30:07;;;;;;;5.28;4.55;;;12.00;73.50;;;;;;4982185;28;20684;-77
2020/12/17 05:32:32;;;;;;;5.60;4.63;;;11.90;73.50;;;;;;4984120;28;20045;-76
2020/12/17 05:35:01;;;;;;;5.57;4.93;;;12.00;73.60;;;;;;4980457;28;20050;-78
2020/12/17 05:37:30;;;;;;;5.88;4.82;;;12.00;73.60;;;;;;4988040;28;20510;-76
2020/12/17 05:40:00;;;;;;;5.40;4.22;;;12.00;73.60;;;;;;4987666;28;20188;-77
2020/12/17 05:42:27;;;;;;;6.05;4.80;;;11.90;73.50;;;;;;4985053;28;20027;-76
2020/12/17 05:44:53;;;;;;;5.47;4.65;;;12.00;73.50;;;;;;4985110;28;20404;-77
2020/12/17 05:47:18;;;;;;;5.50;4.55;;;12.10;73.60;;;;;;4984741;28;20033;-77
2020/12/17 05:49:44;;;;;;;4.75;3.83;;;12.00;73.40;;;;;;4979641;28;20121;-76
2020/12/17 05:52:18;;;;;;;5.25;4.38;;;12.00;73.40;;;;;;4985019;28;20038;-77
2020/12/17 05:55:01;;;;;;;5.68;4.90;;;12.00;73.50;;;;;;4982816;28;20046;-76
2020/12/17 05:57:26;;;;;;;4.93;4.00;;;12.00;73.40;;;;;;4980539;28;20033;-77
2020/12/17 05:59:56;;;;;;;4.68;4.18;;;12.00;73.30;;;;;;4986971;28;20026;-77
2020/12/17 06:02:41;;;;;;;6.40;4.88;;;12.00;73.30;;;;;;4985004;28;20109;-76
2020/12/17 06:05:15;;;;;;;5.45;4.40;;;12.00;73.40;;;;;;4976460;28;20085;-76
2020/12/17 06:07:40;;;;;;;5.82;3.78;;;12.10;73.30;;;;;;4982400;28;20118;-75
2020/12/17 06:10:08;;;;;;;5.68;4.50;;;12.00;73.30;;;;;;4984011;28;20129;-78
2020/12/17 06:12:36;;;;;;;6.15;4.40;;;12.00;73.30;;;;;;4985243;28;20050;-78
2020/12/17 06:15:05;;;;;;;5.50;4.68;;;11.90;73.30;;;;;;4981052;28;20128;-77
2020/12/17 06:17:38;;;;;;;5.47;4.72;;;12.00;73.30;;;;;;4981867;28;20084;-78
2020/12/17 06:20:06;;;;;;;6.68;4.57;;;11.90;73.30;;;;;;4975290;28;20030;-78
2020/12/17 06:22:35;;;;;;;5.93;4.38;;;12.00;73.30;;;;;;4982156;28;20033;-78
2020/12/17 06:25:01;;;;;;;5.40;4.35;;;11.90;73.30;;;;;;4983114;28;20041;-79
2020/12/17 06:27:32;;;;;;;6.85;5.13;;;11.90;73.30;;;;;;4984132;28;20023;-78
2020/12/17 06:30:06;;;;;;;12.95;5.22;;;11.90;73.30;;;;;;4974831;28;20038;-78
2020/12/17 06:32:36;;;;;;;5.63;4.25;;;12.00;73.40;;;;;;4977787;28;20117;-78
2020/12/17 06:35:04;;;;;;;6.00;4.72;;;11.90;73.30;;;;;;4983628;28;20164;-78
2020/12/17 06:37:34;;;;;;;4.78;3.95;;;11.90;73.30;;;;;;4981298;28;20023;-78
2020/12/17 06:39:59;;;;;;;5.80;4.97;;;12.00;73.40;;;;;;4979437;28;20034;-78
2020/12/17 06:42:35;;;;;;;7.03;4.50;;;11.90;73.40;;;;;;4976883;28;20030;-77
2020/12/17 06:45:01;;;;;;;5.63;4.40;;;12.00;73.40;;;;;;4979395;28;20026;-78
2020/12/17 06:47:28;;;;;;;5.72;4.10;;;12.00;73.50;;;;;;4984468;28;20033;-78
2020/12/17 06:49:53;;;;;;;5.68;4.25;;;12.10;73.50;;;;;;4976724;28;20041;-78
2020/12/17 06:52:19;;;;;;;3.88;3.47;;;11.90;73.40;;;;;;4983144;28;20034;-77
2020/12/17 06:54:45;;;;;;;6.30;4.50;;;11.90;73.40;;;;;;4984109;28;20433;-78
2020/12/17 06:57:12;;;;;;;4.90;4.20;;;12.00;73.50;;;;;;4981418;28;20125;-78
2020/12/17 07:00:02;;;;;;;6.18;4.47;;;11.90;73.50;;;;;;4979274;28;20082;-77
2020/12/17 07:02:40;;;;;;;6.50;4.57;;;11.90;73.40;;;;;;4964481;28;20040;-78
2020/12/17 07:05:05;;;;;;;4.85;3.83;;;12.00;73.50;;;;;;4981872;28;20482;-78
2020/12/17 07:07:43;;;;;;;6.05;4.55;;;12.00;73.40;;;;;;4972391;28;20027;-77
2020/12/17 07:10:24;;;;;;;5.68;4.43;;;11.90;73.30;;;;;;4972687;28;20512;-79
2020/12/17 07:12:50;;;;;;;;;;;12.00;73.30;;;;;;4972923;28;20030;-78
2020/12/17 07:15:30;;;;;;;4.53;3.65;;;12.00;73.40;;;;;;4967339;28;20004;-78
2020/12/17 07:18:21;;;;;;;4.25;3.80;;;12.00;73.00;;;;;;4967590;28;20027;-78
2020/12/17 07:20:51;;;;;;;;;;;12.00;73.10;;;;;;4977762;28;20041;-77
2020/12/17 07:23:17;;;;;;;4.90;3.53;;;12.00;73.20;;;;;;4971338;28;19926;-77
2020/12/17 07:25:43;;;;;;;4.60;3.65;;;12.00;72.90;;;;;;4972026;28;20414;-78
2020/12/17 07:28:14;;;;;;;4.43;3.60;;;11.90;73.00;;;;;;4973423;28;20529;-78
2020/12/17 07:30:39;;;;;;;4.57;3.30;;;11.90;73.10;;;;;;4973202;28;20039;-77
2020/12/17 07:33:05;;;;;;;5.70;3.95;;;11.90;73.20;;;;;;4969888;28;20039;-78
2020/12/17 07:35:30;;;;;;;4.43;3.78;;;12.00;73.30;;;;;;4974309;28;20104;-77
2020/12/17 07:37:58;;;;;;;4.97;4.15;;;11.90;73.30;;;;;;4969275;28;20031;-77
2020/12/17 07:40:39;;;;;;;5.40;4.38;;;11.90;73.30;;;;;;4973619;28;20037;-77
2020/12/17 07:43:08;;;;;;;;;;;11.90;73.40;;;;;;4973139;28;20039;-77
2020/12/17 07:45:39;;;;;;;3.67;3.10;;;11.90;73.50;;;;;;4974658;28;20285;-77
2020/12/17 07:48:39;;;;;;;4.53;3.70;;;11.90;73.30;;;;;;4973114;28;20038;-77
2020/12/17 07:51:27;;;;;;;5.60;4.53;;;11.90;73.50;;;;;;4983406;28;20573;-76
2020/12/17 07:53:53;;;;;;;4.20;3.47;;;11.80;73.50;;;;;;4982199;28;20352;-77
2020/12/17 07:56:20;;;;;;;5.03;3.97;;;11.90;73.50;;;;;;4983530;28;20133;-77
2020/12/17 07:58:46;;;;;;;4.45;3.65;;;11.90;73.60;;;;;;4979145;28;20750;-77
2020/12/17 08:01:13;;;;;;;3.97;3.58;;;11.90;73.60;;;;;;4974220;28;20414;-77
2020/12/17 08:03:40;;;;;;;4.47;3.40;;;11.90;73.70;;;;;;4973001;28;20031;-77
2020/12/17 08:06:07;;;;;;;4.65;3.47;;;11.90;73.80;;;;;;4970390;28;20043;-77
2020/12/17 08:08:33;;;;;;;4.88;3.70;;;11.90;73.80;;;;;;4972540;28;20547;-77
2020/12/17 08:11:00;;;;;;;3.85;3.30;;;12.00;73.90;;;;;;4971384;28;20100;-77
2020/12/17 08:13:26;;;;;;;5.70;4.03;;;12.00;73.90;;;;;;4970068;28;20998;-77
2020/12/17 08:15:53;;;;;;;5.10;4.05;;;12.10;74.00;;;;;;4979459;28;20068;-78
2020/12/17 08:18:26;;;;;;;4.03;3.35;;;12.10;74.00;;;;;;4972033;28;20030;-78
2020/12/17 08:21:08;;;;;;;4.50;3.40;;;12.10;74.10;;;;;;4973657;28;20580;-78
2020/12/17 08:23:41;;;;;;;4.25;3.60;;;12.10;74.20;;;;;;4975433;28;20038;-80
2020/12/17 08:26:13;;;;;;;4.45;3.35;;;12.10;74.10;;;;;;4983383;28;20443;-79
2020/12/17 08:28:41;;;;;;;4.18;3.42;;;12.10;74.20;;;;;;4982136;28;20664;-80
2020/12/17 08:31:21;;;;;;;3.63;2.80;;;12.30;74.30;;;;;;4986556;28;20528;-79
2020/12/17 08:33:48;;;;;;;3.50;2.92;;;12.20;74.40;;;;;;4987051;28;20109;-78
2020/12/17 08:36:17;;;;;;;3.67;2.65;;;12.30;74.30;;;;;;4987890;28;20085;-80
2020/12/17 08:39:05;;;;;;;5.07;2.70;;;12.40;74.40;;;;;;4986910;28;20034;-79
2020/12/17 08:41:39;;;;;;;2.70;2.45;;;12.30;74.40;;;;;;4982932;28;20085;-79
2020/12/17 08:44:06;;;;;;;4.07;2.58;;;12.40;74.40;;;;;;4986892;28;20382;-80
2020/12/17 08:46:35;;;;;;;3.60;3.13;;;12.60;74.40;;;;;;4978976;28;20030;-79
2020/12/17 08:49:12;;;;;;;3.13;2.83;;;12.40;74.30;;;;;;4978974;28;20077;-79
2020/12/17 08:51:38;;;;;;;2.97;2.65;;;12.50;74.30;;;;;;4978489;28;20034;-80
2020/12/17 08:54:05;;;;;;;3.72;2.78;;;12.50;74.30;;;;;;4975253;28;20042;-80
2020/12/17 08:56:31;;;;;;;3.47;2.70;;;12.50;74.20;;;;;;4981498;28;20042;-79
2020/12/17 08:59:03;;;;;;;3.03;2.72;;;12.60;74.20;;;;;;4984146;28;20121;-79
2020/12/17 09:01:34;;;;;;;2.55;2.28;;;12.60;74.30;;;;;;4975869;28;20058;-79
2020/12/17 09:04:04;;;;;;;2.97;2.50;;;12.60;74.30;;;;;;4974274;28;20081;-79
2020/12/17 09:06:31;;;;;;;2.67;2.10;;;12.70;74.30;;;;;;4975482;28;20031;-79
2020/12/17 09:09:24;;;;;;;3.28;2.85;;;12.70;74.30;;;;;;4986705;28;20037;-80
2020/12/17 09:11:51;;;;;;;2.28;2.05;;;12.80;74.60;;;;;;4981871;28;20038;-78
2020/12/17 09:14:19;;;;;;;2.92;2.42;;;12.80;74.30;;;;;;4980348;28;20073;-79
2020/12/17 09:16:46;;;;;;;2.53;2.03;;;12.80;74.40;;;;;;4983591;28;20027;-79
2020/12/17 09:19:12;;;;;;;2.75;2.40;;;12.80;74.40;;;;;;4978256;28;20038;-80
2020/12/17 09:21:57;;;;;;;2.33;1.95;;;12.80;74.40;;;;;;4972198;28;20054;-80
2020/12/17 09:24:27;;;;;;;2.00;1.80;;;12.90;74.40;;;;;;4972580;28;20513;-79
2020/12/17 09:26:53;;;;;;;2.78;2.22;;;12.90;74.50;;;;;;4971275;28;20034;-81
2020/12/17 09:29:18;;;;;;;2.42;2.03;;;12.90;74.40;;;;;;4977361;28;20034;-80
2020/12/17 09:31:44;;;;;;;2.13;1.92;;;12.90;74.50;;;;;;4977459;28;20030;-80
2020/12/17 09:34:13;;;;;;;1.73;1.63;;;13.00;74.50;;;;;;4988785;28;20030;-80
2020/12/17 09:36:40;;;;;;;2.10;1.77;;;13.00;74.50;;;;;;4982938;28;20049;-80
2020/12/17 09:39:12;;;;;;;1.85;1.73;;;13.00;74.40;;;;;;4987402;28;20046;-79
2020/12/17 09:41:38;;;;;;;2.10;1.77;;;13.10;74.50;;;;;;4964319;28;20347;-80
2020/12/17 09:44:04;;;;;;;1.92;1.73;;;13.10;74.50;;;;;;4973107;28;20097;-80
2020/12/17 09:46:44;;;;;;;2.00;1.80;;;13.10;74.50;;;;;;4969240;28;20042;-81
2020/12/17 09:49:23;;;;;;;2.40;2.20;;;13.10;74.50;;;;;;4971719;28;20072;-80
2020/12/17 09:51:57;;;;;;;2.10;1.90;;;13.20;74.50;;;;;;4983291;28;20573;-79
2020/12/17 09:54:22;;;;;;;3.05;2.30;;;13.20;74.40;;;;;;4974956;28;20498;-80
2020/12/17 09:57:20;;;;;;;2.75;2.22;;;13.20;74.30;;;;;;4981968;28;20066;-80
2020/12/17 09:59:46;;;;;;;2.13;1.85;;;13.20;74.60;;;;;;4941615;28;20050;-80
2020/12/17 10:02:13;;;;;;;1.98;1.83;;;13.30;74.30;;;;;;4975151;28;20092;-80
2020/12/17 10:04:40;;;;;;;2.65;2.40;;;13.20;74.40;;;;;;4965657;28;20494;-80
2020/12/17 10:07:06;;;;;;;1.98;1.80;;;13.30;74.40;;;;;;4973828;28;20053;-79
2020/12/17 10:09:32;;;;;;;2.22;1.83;;;13.30;74.40;;;;;;4971586;28;20031;-79
2020/12/17 10:11:57;;;;;;;1.70;1.40;;;13.30;74.40;;;;;;4981530;28;20038;-79
2020/12/17 10:14:25;;;;;;;2.08;1.75;;;13.30;74.40;;;;;;4970626;28;20047;-80
2020/12/17 10:16:56;;;;;;;1.73;1.52;;;13.40;74.50;;;;;;4980902;28;20031;-80
2020/12/17 10:19:23;;;;;;;1.60;1.50;;;13.40;74.50;;;;;;4975150;28;20034;-80
2020/12/17 10:21:49;;;;;;;1.70;1.33;;;13.40;74.50;;;;;;4981457;28;20117;-80
2020/12/17 10:24:14;;;;;;;2.03;1.83;;;13.40;74.50;;;;;;4985953;28;20081;-80
2020/12/17 10:26:40;;;;;;;1.60;1.50;;;13.40;74.50;;;;;;4990437;28;20049;-79
2020/12/17 10:29:05;;;;;;;1.63;1.52;;;13.40;74.50;;;;;;4972648;28;20038;-80
2020/12/17 10:31:31;;;;;;;1.60;1.50;;;13.40;74.50;;;;;;4976837;28;21355;-79
2020/12/17 10:33:56;;;;;;;2.42;1.90;;;13.50;74.60;;;;;;4973144;28;20045;-79
2020/12/17 10:36:25;;;;;;;1.73;1.63;;;13.50;74.50;;;;;;4971230;28;20043;-80
2020/12/17 10:38:51;;;;;;;1.85;1.75;;;13.50;74.50;;;;;;4978603;28;20043;-79
2020/12/17 10:41:23;;;;;;;5.65;2.53;;;13.60;74.50;;;;;;4976010;28;20042;-80
2020/12/17 10:43:49;;;;;;;1.92;1.80;;;13.50;74.40;;;;;;4979293;28;20398;-79
2020/12/17 10:46:15;;;;;;;1.67;1.52;;;13.60;74.40;;;;;;4984070;28;20081;-80
2020/12/17 10:48:40;;;;;;;1.70;1.60;;;13.60;74.40;;;;;;4984331;28;20042;-79
2020/12/17 10:51:06;;;;;;;1.48;1.35;;;13.60;74.40;;;;;;4981936;28;20081;-80
2020/12/17 10:53:31;;;;;;;1.58;1.48;;;13.60;74.30;;;;;;4978747;28;20509;-78
2020/12/17 10:55:57;;;;;;;2.22;1.50;;;13.60;74.30;;;;;;4978745;28;20044;-80
2020/12/17 10:58:22;;;;;;;1.52;1.42;;;13.70;74.40;;;;;;4977574;28;20031;-79
2020/12/17 11:00:48;;;;;;;1.85;1.75;;;13.60;74.30;;;;;;4975733;28;20034;-78
2020/12/17 11:03:13;;;;;;;2.75;1.80;;;13.60;74.20;;;;;;4963442;28;20041;-77
2020/12/17 11:05:39;;;;;;;2.00;1.90;;;13.70;74.30;;;;;;4979328;28;20065;-78
2020/12/17 11:08:04;;;;;;;2.28;1.80;;;13.70;74.30;;;;;;4978250;28;20038;-79
2020/12/17 11:10:31;;;;;;;2.95;1.80;;;13.70;74.20;;;;;;4979468;28;20053;-78
2020/12/17 11:12:57;;;;;;;2.15;1.55;;;13.70;74.10;;;;;;4976146;28;20034;-78
2020/12/17 11:15:22;;;;;;;2.05;1.65;;;13.70;74.10;;;;;;4973682;28;20038;-81
2020/12/17 11:17:48;;;;;;;1.90;1.70;;;13.80;74.20;;;;;;4977298;28;20042;-79
2020/12/17 11:20:16;;;;;;;1.50;1.20;;;13.70;74.20;;;;;;4972637;28;20039;-78
2020/12/17 11:22:41;;;;;;;1.40;1.30;;;13.70;74.20;;;;;;4977292;28;20064;-78
2020/12/17 11:25:07;;;;;;;1.40;1.02;;;13.80;74.20;;;;;;4969089;28;20122;-79
2020/12/17 11:27:32;;;;;;;1.20;1.10;;;13.80;74.10;;;;;;4968936;28;20031;-78
2020/12/17 11:29:58;;;;;;;1.75;1.58;;;13.90;74.10;;;;;;4971474;28;20034;-78
2020/12/17 11:32:23;;;;;;;1.35;1.08;;;13.90;74.10;;;;;;4975553;28;20453;-79
2020/12/17 11:34:50;;;;;;;2.88;1.40;;;13.80;74.10;;;;;;4976049;28;20116;-79
2020/12/17 11:37:16;;;;;;;2.33;1.73;;;14.00;74.10;;;;;;4978014;28;20112;-79
2020/12/17 11:39:41;;;;;;;1.60;1.48;;;13.90;74.00;;;;;;4975949;28;20077;-78
2020/12/17 11:42:07;;;;;;;2.15;1.65;;;13.90;73.80;;;;;;4968981;28;20102;-79
2020/12/17 11:44:34;;;;;;;1.60;1.50;;;13.90;73.70;;;;;;4975659;28;20027;-78
2020/12/17 11:47:00;;;;;;;1.67;1.58;;;13.90;73.60;;;;;;4977169;28;20053;-78
2020/12/17 11:49:25;;;;;;;2.47;1.92;;;13.90;73.60;;;;;;4977325;28;20509;-79
2020/12/17 11:51:52;;;;;;;1.90;1.27;;;13.90;73.60;;;;;;4984045;28;20043;-78
2020/12/17 11:54:18;;;;;;;1.35;1.25;;;13.90;73.70;;;;;;4968523;28;20030;-79
2020/12/17 11:56:49;;;;;;;1.58;1.38;;;13.90;73.80;;;;;;4978464;28;20067;-79
2020/12/17 11:59:15;;;;;;;;;;;13.90;73.80;;;;;;4979801;28;20065;-80
2020/12/17 12:01:42;;;;;;;1.08;0.93;;;13.90;73.40;;;;;;4975813;28;19945;-79
2020/12/17 12:04:08;;;;;;;1.55;1.30;;;13.90;73.50;;;;;;4978215;28;20681;-78
2020/12/17 12:06:34;;;;;;;1.20;1.10;;;13.90;73.50;;;;;;4977498;28;20071;-80
2020/12/17 12:08:59;;;;;;;1.52;1.40;;;13.90;73.60;;;;;;4970232;28;20062;-80
2020/12/17 12:11:25;;;;;;;1.27;1.17;;;14.00;73.70;;;;;;4977961;28;20042;-78
2020/12/17 12:13:51;;;;;;;1.60;1.50;;;13.90;73.60;;;;;;4976442;28;20037;-80
2020/12/17 12:16:17;;;;;;;1.90;1.70;;;13.90;73.70;;;;;;4970611;28;20508;-80
2020/12/17 12:18:43;;;;;;;1.65;1.35;;;13.90;73.60;;;;;;4968203;28;20039;-78
2020/12/17 12:21:12;;;;;;;1.67;1.58;;;13.90;73.60;;;;;;4975552;28;20048;-79
2020/12/17 12:23:37;;;;;;;1.17;1.08;;;13.90;73.50;;;;;;4960391;28;20039;-79
2020/12/17 12:26:03;;;;;;;1.38;1.27;;;14.00;73.60;;;;;;4978645;28;20034;-81
2020/12/17 12:28:29;;;;;;;1.30;1.20;;;14.00;73.50;;;;;;4984809;28;20045;-77
2020/12/17 12:30:55;;;;;;;1.35;1.25;;;13.90;73.40;;;;;;4983481;28;20047;-78
2020/12/17 12:33:20;;;;;;;1.35;1.25;;;14.00;73.50;;;;;;4982100;28;20034;-79
2020/12/17 12:35:46;;;;;;;1.30;1.20;;;13.90;73.50;;;;;;4983539;28;20141;-80
2020/12/17 12:38:11;;;;;;;1.70;1.60;;;14.00;73.60;;;;;;4984595;28;20034;-79
2020/12/17 12:40:36;;;;;;;1.50;1.38;;;14.10;73.70;;;;;;4984835;28;20073;-78
2020/12/17 12:43:02;;;;;;;1.70;1.25;;;14.00;73.50;;;;;;4982265;28;20528;-79
2020/12/17 12:45:28;;;;;;;1.48;1.33;;;13.90;73.50;;;;;;4981433;28;20093;-78
2020/12/17 12:47:53;;;;;;;1.48;1.38;;;13.90;73.40;;;;;;4985963;28;20034;-79
2020/12/17 12:50:19;;;;;;;2.55;1.73;;;13.90;73.40;;;;;;4977385;28;20034;-79